This is the latest recevied weather packets stored in our database for station/object G8PZT. If no packets are shown the sender has not sent any weather packets the latest 10 day(s).
| Time | Temp. | Humidity | Pressure | Rain* | Wind** | Luminosity | Snow |
|---|---|---|---|---|---|---|---|
| 1787938719 | 18.89° C | 54% | - | 0 mm | - | - | - |
| 1787938119 | 20° C | 50% | - | 0 mm | - | - | - |
| 1787937519 | 19.44° C | 53% | - | 0 mm | - | - | - |
| 1787936920 | 19.44° C | 53% | - | 0 mm | - | - | - |
| 1787936403 | 18.89° C | 54% | - | 0 mm | - | - | - |
| 1787936320 | 18.89° C | 55% | - | 0 mm | - | - | - |
| 1787935719 | 18.89° C | 55% | - | 0 mm | - | - | - |
| 1787935119 | 18.89° C | 52% | - | 0 mm | - | - | - |
| 1787934520 | 19.44° C | 51% | - | 0 mm | - | - | - |
| 1787933920 | 19.44° C | 51% | - | 0 mm | - | - | - |
| 1787933320 | 19.44° C | 51% | - | 0 mm | - | - | - |
| 1787932802 | 19.44° C | 51% | - | 0 mm | - | - | - |
| 1787932720 | 18.89° C | 51% | - | 0 mm | - | - | - |
| 1787932119 | 19.44° C | 50% | - | 0 mm | - | - | - |
| 1787931602 | 19.44° C | 49% | - | 0 mm | - | - | - |
| 1787931519 | 19.44° C | 49% | - | 0 mm | - | - | - |
| 1787930919 | 19.44° C | 47% | - | 0 mm | - | - | - |
| 1787930319 | 20° C | 44% | - | 0 mm | - | - | - |
| 1787929719 | 20.56° C | 42% | - | 0 mm | - | - | - |
| 1787929120 | 21.11° C | 40% | - | 0 mm | - | - | - |
| 1787928520 | 22.22° C | 35% | - | 0 mm | - | - | - |
| 1787927920 | 22.22° C | 36% | - | 0 mm | - | - | - |
| 1787927320 | 21.67° C | 39% | - | 0 mm | - | - | - |
| 1787926802 | 21.67° C | 38% | - | 0 mm | - | - | - |
| 1787926720 | 21.67° C | 37% | - | 0 mm | - | - | - |
* Rain latest hour (hover to see other rain measurements)
** Current wind speed in m/s (hover to see current wind gust speed)